Time;durP1;ratioP1;P1;durP2;ratioP2;P2;SDS_P1;SDS_P2;PMS_P1;PMS_P2;Temp;Humidity;BMP_temperature;BMP_pressure;BME280_temperature;BME280_humidity;BME280_pressure;Samples;Min_cycle;Max_cycle;Signal;HPM_P1;HPM_P2
2022/10/15 00:00:52;;;;;;;;;;;;;;;14.00;85.04;100039.06;4931240;29;19926;-88
2022/10/15 00:03:18;;;;;;;;;;;;;;;14.02;85.36;100039.03;4945596;29;20238;-89
2022/10/15 00:05:43;;;;;;;;;;;;;;;14.03;85.07;100035.50;4963857;28;20689;-89
2022/10/15 00:08:09;;;;;;;;;;;;;;;13.88;86.58;100034.91;4943041;28;20029;-90
2022/10/15 00:10:35;;;;;;;;;;;;;;;14.02;84.91;100034.59;4930977;29;19926;-90
2022/10/15 00:13:00;;;;;;;;;;;;;;;13.97;85.16;100034.69;4945919;29;19972;-91
2022/10/15 00:15:26;;;;;;;;;;;;;;;13.87;86.10;100030.53;4930481;29;19929;-90
2022/10/15 00:17:51;;;;;;;;;;;;;;;14.00;85.51;100038.22;4934071;29;20508;-91
2022/10/15 00:20:17;;;;;;;;;;;;;;;13.77;87.43;100032.50;4935105;29;20753;-90
2022/10/15 00:22:42;;;;;;;;;;;;;;;13.67;87.50;100033.66;4952547;28;20688;-89
2022/10/15 00:25:08;;;;;;;;;;;;;;;13.71;88.01;100027.34;4953666;28;19922;-90
2022/10/15 00:27:34;;;;;;;;;;;;;;;13.64;88.74;100025.75;4953203;29;19918;-91
2022/10/15 00:30:02;;;;;;;;;;;;;;;13.71;88.26;100024.69;4954224;29;20904;-90
2022/10/15 00:32:27;;;;;;;;;;;;;;;13.65;88.49;100019.53;4952844;29;20006;-91
2022/10/15 00:34:53;;;;;;;;;;;;;;;13.85;87.89;100023.53;4954036;29;20005;-90
2022/10/15 00:37:19;;;;;;;;;;;;;;;14.02;87.23;100026.63;4953464;29;19925;-91
2022/10/15 00:39:45;;;;;;;;;;;;;;;13.90;87.30;100019.88;4953779;28;19924;-88
2022/10/15 00:42:10;;;;;;;;;;;;;;;13.91;87.73;100018.06;4953509;29;20044;-89
2022/10/15 00:44:36;;;;;;;;;;;;;;;14.02;86.14;100017.81;4953670;29;19918;-90
2022/10/15 00:47:02;;;;;;;;;;;;;;;13.89;87.25;100018.09;4952746;28;20621;-91
2022/10/15 00:49:39;;;;;;;;;;;;;;;14.04;85.90;100021.28;4952873;29;20008;-91
2022/10/15 00:52:10;;;;;;;;;;;;;;;14.12;85.36;100014.03;4952990;28;19918;-90
2022/10/15 00:54:38;;;;;;;;;;;;;;;14.10;85.05;100019.38;4953082;29;19958;-91
2022/10/15 00:57:04;;;;;;;;;;;;;;;13.84;87.29;100016.47;4946020;28;20727;-90
2022/10/15 00:59:31;;;;;;;;;;;;;;;13.77;88.21;100013.09;4933223;29;19998;-89
2022/10/15 01:01:58;;;;;;;;;;;;;;;13.87;87.16;100011.97;4939460;29;19937;-89
2022/10/15 01:04:24;;;;;;;;;;;;;;;13.95;87.54;100007.34;4951808;29;19934;-91
2022/10/15 01:06:49;;;;;;;;;;;;;;;14.00;86.24;100001.94;4951982;28;19956;-90
2022/10/15 01:09:14;;;;;;;;;;;;;;;14.02;85.68;100005.41;4952517;29;19914;-91
2022/10/15 01:11:43;;;;;;;;;;;;;;;14.00;86.96;100004.59;4953000;29;20390;-90
2022/10/15 01:14:17;;;;;;;;;;;;;;;13.92;86.59;100017.19;4952859;28;20001;-90
2022/10/15 01:16:53;;;;;;;;;;;;;;;14.05;86.69;100007.13;4952857;29;19919;-90
2022/10/15 01:19:36;;;;;;;;;;;;;;;13.95;86.54;100011.81;4952539;29;19910;-90
2022/10/15 01:22:07;;;;;;;;;;;;;;;13.94;86.81;100013.56;4953107;29;19918;-91
2022/10/15 01:25:00;;;;;;;;;;;;;;;14.02;86.20;100015.16;4952041;29;19918;-89
2022/10/15 01:27:39;;;;;;;;;;;;;;;14.21;84.57;100016.47;4951098;28;20420;-89
2022/10/15 01:30:24;;;;;;;;;;;;;;;14.23;84.03;100012.00;4936656;28;19930;-89
2022/10/15 01:32:49;;;;;;;;;;;;;;;14.21;84.56;100008.50;4930961;29;20360;-88
2022/10/15 01:35:34;;;;;;;;;;;;;;;14.08;84.86;100002.63;4947958;29;19922;-89
2022/10/15 01:38:00;;;;;;;;;;;;;;;13.97;86.29;100005.53;4947715;29;19918;-88
2022/10/15 01:40:29;;;;;;;;;;;;;;;13.91;87.00;100010.13;4952048;28;19929;-89
2022/10/15 01:43:08;;;;;;;;;;;;;;;13.95;86.74;100017.97;4953010;29;19918;-88
2022/10/15 01:45:42;;;;;;;;;;;;;;;14.15;85.60;100020.13;4953240;28;19922;-89
2022/10/15 01:48:09;;;;;;;;;;;;;;;14.24;84.73;100020.81;4952617;29;19958;-90
2022/10/15 01:50:37;;;;;;;;;;;;;;;14.24;85.14;100012.84;4949931;28;19922;-89
2022/10/15 01:53:03;;;;;;;;;;;;;;;14.20;84.73;100011.22;4952079;29;19925;-88
2022/10/15 01:55:30;;;;;;;;;;;;;;;14.15;85.26;100021.94;4933568;29;19918;-88
2022/10/15 01:57:56;;;;;;;;;;;;;;;13.83;86.42;100020.91;4933165;29;19922;-91
2022/10/15 02:00:22;;;;;;;;;;;;;;;14.08;85.83;100013.22;4948721;29;19958;-89
2022/10/15 02:02:47;;;;;;;;;;;;;;;14.11;85.81;100014.94;4942096;29;19981;-90
2022/10/15 02:05:19;;;;;;;;;;;;;;;14.32;84.79;100022.38;4945470;28;20367;-90
2022/10/15 02:08:04;;;;;;;;;;;;;;;14.05;84.95;100020.41;4951409;29;20057;-90
2022/10/15 02:10:36;;;;;;;;;;;;;;;14.12;84.82;100019.34;4950153;29;19981;-92
2022/10/15 02:13:15;;;;;;;;;;;;;;;14.04;85.82;100019.53;4951074;28;20014;-90
2022/10/15 02:15:46;;;;;;;;;;;;;;;14.17;85.15;100013.94;4950949;29;20021;-89
2022/10/15 02:18:28;;;;;;;;;;;;;;;14.17;85.32;100013.94;4950748;29;19984;-90
2022/10/15 02:20:56;;;;;;;;;;;;;;;14.19;84.62;100010.31;4949852;28;20005;-89
2022/10/15 02:23:26;;;;;;;;;;;;;;;14.05;85.04;100017.75;4948111;29;19918;-90
2022/10/15 02:25:52;;;;;;;;;;;;;;;13.88;85.70;100021.66;4944562;29;20433;-90
2022/10/15 02:28:17;;;;;;;;;;;;;;;13.90;85.41;100018.97;4937326;28;19922;-90
2022/10/15 02:30:46;;;;;;;;;;;;;;;14.24;84.18;100024.34;4949802;28;19924;-89
2022/10/15 02:33:12;;;;;;;;;;;;;;;14.23;83.87;100019.94;4950234;28;19918;-90
2022/10/15 02:35:37;;;;;;;;;;;;;;;14.06;83.97;100020.38;4950609;28;19918;-90
2022/10/15 02:38:05;;;;;;;;;;;;;;;13.86;85.62;100025.28;4950363;28;19925;-91
2022/10/15 02:40:33;;;;;;;;;;;;;;;13.83;85.30;100023.56;4964505;28;20325;-90
2022/10/15 02:42:58;;;;;;;;;;;;;;;13.87;85.20;100027.91;4950662;28;19918;-90
2022/10/15 02:45:24;;;;;;;;;;;;;;;13.95;85.11;100025.91;4949349;28;19918;-90
2022/10/15 02:47:49;;;;;;;;;;;;;;;13.90;84.88;100019.88;4949251;28;19919;-90
2022/10/15 02:50:14;;;;;;;;;;;;;;;13.93;84.36;100021.56;4950146;28;19914;-91
2022/10/15 02:52:40;;;;;;;;;;;;;;;13.96;84.33;100024.13;4968519;28;19929;-91
2022/10/15 02:55:05;;;;;;;;;;;;;;;14.16;83.19;100018.34;4962324;28;19914;-90
2022/10/15 02:57:31;;;;;;;;;;;;;;;14.23;83.30;100024.41;4962829;28;20569;-89
2022/10/15 02:59:56;;;;;;;;;;;;;;;14.22;82.78;100020.00;4948683;29;19914;-89
2022/10/15 03:02:21;;;;;;;;;;;;;;;14.39;82.56;100022.22;4950185;29;19918;-89
2022/10/15 03:04:46;;;;;;;;;;;;;;;14.31;82.08;100025.94;4946189;29;20001;-89
2022/10/15 03:07:13;;;;;;;;;;;;;;;14.33;81.29;100020.59;4949746;29;20289;-90
2022/10/15 03:09:38;;;;;;;;;;;;;;;14.36;81.79;100028.47;4949736;28;19922;-88
2022/10/15 03:12:04;;;;;;;;;;;;;;;14.26;81.67;100024.31;4950679;28;19929;-89
2022/10/15 03:14:29;;;;;;;;;;;;;;;14.29;81.82;100018.94;4950015;28;19922;-89
2022/10/15 03:16:55;;;;;;;;;;;;;;;14.40;81.75;100023.97;4950576;28;19997;-89
2022/10/15 03:19:20;;;;;;;;;;;;;;;14.45;81.11;100028.22;4950258;29;19918;-88
2022/10/15 03:21:45;;;;;;;;;;;;;;;14.41;81.20;100033.66;4963953;28;19918;-87
2022/10/15 03:24:11;;;;;;;;;;;;;;;14.43;81.52;100022.09;4950122;29;19917;-88
2022/10/15 03:26:36;;;;;;;;;;;;;;;14.47;80.06;100025.53;4949840;29;19962;-88
2022/10/15 03:29:02;;;;;;;;;;;;;;;14.31;80.68;100023.28;4947637;28;20391;-88
2022/10/15 03:31:27;;;;;;;;;;;;;;;14.14;81.33;100010.44;4931099;29;19925;-89
2022/10/15 03:33:52;;;;;;;;;;;;;;;14.37;80.84;100027.56;4931178;29;19919;-88
2022/10/15 03:36:17;;;;;;;;;;;;;;;14.29;80.46;100033.06;4941674;29;19937;-87
2022/10/15 03:38:43;;;;;;;;;;;;;;;14.28;80.30;100030.44;4949293;29;20005;-88
2022/10/15 03:41:08;;;;;;;;;;;;;;;14.27;80.74;100034.91;4948427;29;19914;-89
2022/10/15 03:43:33;;;;;;;;;;;;;;;14.21;81.14;100031.50;4930316;29;20416;-88
2022/10/15 03:46:02;;;;;;;;;;;;;;;14.24;81.30;100032.31;4945084;29;19954;-88
2022/10/15 03:48:28;;;;;;;;;;;;;;;14.17;81.33;100028.06;4930821;29;19997;-88
2022/10/15 03:50:53;;;;;;;;;;;;;;;14.24;81.20;100032.31;4939038;29;20378;-88
2022/10/15 03:53:18;;;;;;;;;;;;;;;14.17;80.63;100037.81;4953673;29;19918;-89
2022/10/15 03:55:44;;;;;;;;;;;;;;;14.23;80.55;100035.00;4953281;29;20361;-90
2022/10/15 03:58:10;;;;;;;;;;;;;;;14.24;81.08;100031.41;4953652;28;19922;-89
2022/10/15 04:00:35;;;;;;;;;;;;;;;14.29;80.11;100024.25;4952904;29;19918;-89
2022/10/15 04:03:00;;;;;;;;;;;;;;;14.02;81.48;100029.28;4949627;29;19938;-88
2022/10/15 04:05:25;;;;;;;;;;;;;;;14.00;81.48;100028.47;4950126;29;20385;-89
2022/10/15 04:07:51;;;;;;;;;;;;;;;14.11;81.63;100034.38;4946719;29;19923;-89
2022/10/15 04:10:16;;;;;;;;;;;;;;;14.20;80.33;100025.34;4953745;29;19918;-88
2022/10/15 04:12:41;;;;;;;;;;;;;;;14.13;80.95;100037.88;4953858;28;19925;-88
2022/10/15 04:15:07;;;;;;;;;;;;;;;14.15;81.02;100030.75;4951424;28;19919;-88
2022/10/15 04:17:32;;;;;;;;;;;;;;;14.23;79.55;100022.59;4933823;29;20018;-88
2022/10/15 04:19:57;;;;;;;;;;;;;;;14.31;79.66;100031.22;4934439;29;19966;-87
2022/10/15 04:22:23;;;;;;;;;;;;;;;14.26;79.90;100026.97;4946920;29;20009;-89
2022/10/15 04:24:48;;;;;;;;;;;;;;;14.21;79.92;100026.19;4949409;29;19973;-91
2022/10/15 04:27:14;;;;;;;;;;;;;;;14.13;80.32;100032.56;4934804;29;19926;-88
2022/10/15 04:29:39;;;;;;;;;;;;;;;14.08;80.65;100029.16;4934840;29;19925;-88
2022/10/15 04:32:05;;;;;;;;;;;;;;;14.24;80.32;100027.00;4942540;29;19918;-89
2022/10/15 04:34:30;;;;;;;;;;;;;;;14.23;79.42;100027.03;4958392;29;19918;-89
2022/10/15 04:36:55;;;;;;;;;;;;;;;14.01;80.32;100029.31;4956523;28;19974;-89
2022/10/15 04:39:21;;;;;;;;;;;;;;;14.02;80.77;100031.09;4953682;28;20316;-89
2022/10/15 04:41:46;;;;;;;;;;;;;;;14.06;80.96;100030.97;4952041;29;19927;-88
2022/10/15 04:44:11;;;;;;;;;;;;;;;14.19;79.66;100028.03;4955054;29;19926;-89
2022/10/15 04:46:37;;;;;;;;;;;;;;;14.23;79.40;100027.03;4970911;29;19915;-92
2022/10/15 04:49:02;;;;;;;;;;;;;;;14.23;78.77;100035.00;4950527;29;19922;-93
2022/10/15 04:51:27;;;;;;;;;;;;;;;14.25;78.62;100028.72;4951402;29;19922;-90
2022/10/15 04:53:53;;;;;;;;;;;;;;;14.07;79.90;100034.47;4953558;29;19969;-91
2022/10/15 04:56:19;;;;;;;;;;;;;;;13.94;80.60;100036.56;4952603;28;19918;-89
2022/10/15 04:58:46;;;;;;;;;;;;;;;13.86;80.99;100039.41;4951654;28;19914;-89
2022/10/15 05:01:12;;;;;;;;;;;;;;;13.84;80.33;100046.53;4948244;29;20385;-91
2022/10/15 05:03:39;;;;;;;;;;;;;;;13.75;80.79;100041.44;4947706;28;19918;-90
2022/10/15 05:06:06;;;;;;;;;;;;;;;13.88;80.53;100036.72;4946264;29;19914;-89
2022/10/15 05:08:32;;;;;;;;;;;;;;;13.75;80.86;100042.28;4944129;28;19961;-89
2022/10/15 05:11:04;;;;;;;;;;;;;;;13.71;81.42;100040.59;4933031;29;19918;-93
2022/10/15 05:13:30;;;;;;;;;;;;;;;13.78;81.15;100041.38;4948039;29;20074;-92
2022/10/15 05:15:56;;;;;;;;;;;;;;;13.86;81.01;100043.84;4947419;29;19926;-92
2022/10/15 05:18:23;;;;;;;;;;;;;;;13.76;81.06;100048.44;4934742;29;19929;-93
2022/10/15 05:20:48;;;;;;;;;;;;;;;13.83;81.24;100044.78;4949067;29;19961;-92
2022/10/15 05:23:13;;;;;;;;;;;;;;;13.87;81.33;100046.44;4939109;29;19997;-93
2022/10/15 05:25:40;;;;;;;;;;;;;;;13.94;81.12;100047.19;4952137;28;20385;-91
2022/10/15 05:28:05;;;;;;;;;;;;;;;13.93;81.40;100056.03;4951284;29;19960;-92
2022/10/15 05:30:32;;;;;;;;;;;;;;;14.03;81.12;100057.56;4952416;29;20001;-92
2022/10/15 05:32:57;;;;;;;;;;;;;;;14.17;81.45;100059.03;4946730;29;19969;-91
2022/10/15 05:35:23;;;;;;;;;;;;;;;14.11;80.95;100058.25;4933804;28;19981;-92
2022/10/15 05:37:49;;;;;;;;;;;;;;;14.34;80.19;100062.13;4938481;29;20396;-92
2022/10/15 05:40:15;;;;;;;;;;;;;;;14.38;80.32;100055.84;4948685;29;19961;-92
2022/10/15 05:42:40;;;;;;;;;;;;;;;14.47;80.38;100068.91;4932666;29;19961;-87
2022/10/15 05:45:06;;;;;;;;;;;;;;;14.38;80.35;100065.56;4940875;29;19973;-89
2022/10/15 05:47:31;;;;;;;;;;;;;;;14.31;80.60;100068.38;4952907;28;19918;-89
2022/10/15 05:49:56;;;;;;;;;;;;;;;14.30;80.02;100069.31;4952604;29;19983;-90
2022/10/15 05:52:22;;;;;;;;;;;;;;;14.41;79.73;100074.34;4952470;29;19997;-88
2022/10/15 05:54:47;;;;;;;;;;;;;;;14.27;80.01;100079.09;4952300;29;19914;-89
2022/10/15 05:57:12;;;;;;;;;;;;;;;14.24;80.66;100089.78;4939425;29;19922;-85
2022/10/15 05:59:38;;;;;;;;;;;;;;;14.31;80.42;100083.44;4945482;29;19918;-87
2022/10/15 06:02:03;;;;;;;;;;;;;;;14.21;81.05;100082.81;4944051;29;19926;-86
2022/10/15 06:04:28;;;;;;;;;;;;;;;14.33;81.10;100089.56;4967903;28;19922;-85
2022/10/15 06:06:54;;;;;;;;;;;;;;;14.17;81.79;100086.44;4952591;29;19918;-86
2022/10/15 06:09:19;;;;;;;;;;;;;;;14.44;81.06;100086.66;4967596;28;19976;-85
2022/10/15 06:11:44;;;;;;;;;;;;;;;14.47;80.23;100092.78;4951653;29;19918;-86
2022/10/15 06:14:10;;;;;;;;;;;;;;;14.53;80.29;100098.84;4932846;29;19927;-87
2022/10/15 06:16:35;;;;;;;;;;;;;;;14.36;81.48;100094.81;4949355;29;19929;-90
2022/10/15 06:19:01;;;;;;;;;;;;;;;14.40;80.59;100090.31;4953757;28;19960;-88
2022/10/15 06:21:26;;;;;;;;;;;;;;;14.55;81.23;100089.94;4967644;28;19969;-86
2022/10/15 06:23:51;;;;;;;;;;;;;;;14.42;80.36;100094.66;4953575;29;19921;-86
2022/10/15 06:26:16;;;;;;;;;;;;;;;14.43;80.74;100107.03;4954066;29;19919;-85
2022/10/15 06:28:42;;;;;;;;;;;;;;;14.60;81.24;100104.00;4953679;29;19914;-85
2022/10/15 06:31:07;;;;;;;;;;;;;;;14.83;80.28;100113.16;4955386;29;20304;-88
2022/10/15 06:33:32;;;;;;;;;;;;;;;14.96;79.81;100111.06;4955381;29;20300;-88
2022/10/15 06:36:03;;;;;;;;;;;;;;;15.09;79.21;100114.25;4955169;29;20312;-90
2022/10/15 06:38:29;;;;;;;;;;;;;;;15.17;79.26;100115.78;4954683;28;19918;-90
2022/10/15 06:40:55;;;;;;;;;;;;;;;15.21;78.66;100111.25;4954569;29;19918;-90
2022/10/15 06:43:20;;;;;;;;;;;;;;;15.28;77.55;100117.28;4955457;28;19961;-90
2022/10/15 06:45:45;;;;;;;;;;;;;;;15.41;77.91;100116.00;4955384;29;19950;-88
2022/10/15 06:48:11;;;;;;;;;;;;;;;15.30;77.71;100110.13;4954482;29;19977;-90
2022/10/15 06:50:38;;;;;;;;;;;;;;;15.34;77.82;100112.66;4956397;28;19915;-89
2022/10/15 06:53:04;;;;;;;;;;;;;;;15.43;77.54;100123.94;4956299;29;19934;-91
2022/10/15 06:55:31;;;;;;;;;;;;;;;15.40;77.52;100120.47;4951775;29;19921;-90
2022/10/15 06:58:01;;;;;;;;;;;;;;;15.31;78.46;100120.72;4954131;28;20429;-90
2022/10/15 07:00:26;;;;;;;;;;;;;;;15.52;76.31;100123.69;4951223;28;19922;-91
2022/10/15 07:02:53;;;;;;;;;;;;;;;15.40;76.54;100117.81;4943551;29;19915;-86
2022/10/15 07:05:18;;;;;;;;;;;;;;;15.52;76.15;100119.25;4950909;29;19922;-88
2022/10/15 07:07:50;;;;;;;;;;;;;;;15.55;75.71;100123.59;4953573;29;19918;-86
2022/10/15 07:10:16;;;;;;;;;;;;;;;15.54;76.01;100122.75;4952826;29;19922;-89
2022/10/15 07:12:41;;;;;;;;;;;;;;;15.40;76.13;100123.13;4954572;29;19925;-89
2022/10/15 07:15:08;;;;;;;;;;;;;;;15.50;74.74;100129.03;4954153;28;20301;-90
2022/10/15 07:17:34;;;;;;;;;;;;;;;15.65;74.81;100125.09;4938099;29;19930;-87
2022/10/15 07:20:00;;;;;;;;;;;;;;;15.36;75.23;100125.91;4950367;29;19965;-88
2022/10/15 07:22:25;;;;;;;;;;;;;;;15.20;75.32;100128.13;4949203;28;19930;-87
2022/10/15 07:24:51;;;;;;;;;;;;;;;15.42;75.04;100123.09;4937587;28;19918;-88
2022/10/15 07:27:16;;;;;;;;;;;;;;;15.44;75.05;100125.69;4947023;28;19926;-86
2022/10/15 07:29:41;;;;;;;;;;;;;;;15.38;75.23;100117.00;4951499;29;19925;-89
2022/10/15 07:32:07;;;;;;;;;;;;;;;15.38;74.72;100124.06;4949572;29;19969;-89
2022/10/15 07:34:32;;;;;;;;;;;;;;;15.25;75.65;100118.25;4953861;28;19965;-93
2022/10/15 07:36:57;;;;;;;;;;;;;;;15.24;74.99;100124.47;4952449;29;19925;-90
2022/10/15 07:39:23;;;;;;;;;;;;;;;15.21;76.05;100124.53;4966845;28;19929;-91
2022/10/15 07:41:48;;;;;;;;;;;;;;;15.53;74.92;100122.78;4952178;28;19918;-89
2022/10/15 07:44:13;;;;;;;;;;;;;;;15.34;74.99;100122.44;4951527;29;20381;-90
2022/10/15 07:46:43;;;;;;;;;;;;;;;15.71;73.58;100122.25;4954550;28;19921;-88
2022/10/15 07:49:10;;;;;;;;;;;;;;;15.76;72.43;100117.66;4953795;28;20449;-90
2022/10/15 07:51:35;;;;;;;;;;;;;;;15.74;72.94;100116.84;4953957;28;19921;-92
2022/10/15 07:54:00;;;;;;;;;;;;;;;15.68;72.10;100116.16;4954866;28;20341;-88
2022/10/15 07:56:33;;;;;;;;;;;;;;;15.76;71.94;100115.00;4953239;28;20680;-93
2022/10/15 07:59:01;;;;;;;;;;;;;;;15.49;72.28;100114.03;4936392;29;20006;-92
2022/10/15 08:01:26;;;;;;;;;;;;;;;15.62;71.59;100111.03;4953485;29;20017;-92
2022/10/15 08:03:51;;;;;;;;;;;;;;;15.76;71.56;100115.00;4953022;28;19949;-94
2022/10/15 08:06:24;;;;;;;;;;;;;;;16.00;71.36;100109.88;4938906;28;19925;-95
2022/10/15 08:08:49;;;;;;;;;;;;;;;16.22;69.78;100111.88;4943030;29;19999;-93
2022/10/15 08:11:16;;;;;;;;;;;;;;;16.59;69.06;100113.34;4943067;28;19918;-92
2022/10/15 08:13:42;;;;;;;;;;;;;;;16.51;68.77;100113.59;4933370;29;19923;-90
2022/10/15 08:16:09;;;;;;;;;;;;;;;16.64;67.48;100116.75;4938975;29;20456;-91
2022/10/15 08:18:36;;;;;;;;;;;;;;;16.81;67.86;100121.50;4967350;28;20649;-92
2022/10/15 08:21:02;;;;;;;;;;;;;;;17.24;68.87;100120.03;4952227;29;19914;-90
2022/10/15 08:23:27;;;;;;;;;;;;;;;17.85;65.58;100113.34;4945037;29;20392;-91
2022/10/15 08:25:53;;;;;;;;;;;;;;;18.02;61.24;100110.91;4937202;29;20305;-92
2022/10/15 08:28:18;;;;;;;;;;;;;;;17.96;61.51;100118.31;4952617;28;20049;-92
2022/10/15 08:30:44;;;;;;;;;;;;;;;18.04;61.73;100113.53;4950371;29;19972;-94
2022/10/15 08:33:11;;;;;;;;;;;;;;;18.05;60.55;100118.81;4955681;29;19922;-94
2022/10/15 08:35:40;;;;;;;;;;;;;;;18.36;59.93;100109.56;4970223;28;19918;-93
2022/10/15 08:38:06;;;;;;;;;;;;;;;18.20;58.71;100111.13;4960586;28;20017;-94
2022/10/15 08:40:34;;;;;;;;;;;;;;;18.28;59.55;100113.50;4963324;29;19922;-95
2022/10/15 08:42:59;;;;;;;;;;;;;;;18.54;59.61;100117.78;4954195;29;19972;-93
2022/10/15 08:45:28;;;;;;;;;;;;;;;18.34;57.59;100113.25;4954553;29;19915;-94
2022/10/15 08:47:57;;;;;;;;;;;;;;;18.43;58.67;100115.56;4957302;29;20316;-94
2022/10/15 08:50:25;;;;;;;;;;;;;;;18.32;58.84;100123.09;4956652;28;19921;-94
2022/10/15 08:52:54;;;;;;;;;;;;;;;18.75;56.83;100118.66;4970239;28;19929;-95
2022/10/15 08:55:23;;;;;;;;;;;;;;;18.81;56.41;100125.56;4973248;28;19945;-94
2022/10/15 08:57:55;;;;;;;;;;;;;;;18.74;56.11;100131.16;4971285;28;20368;-92
2022/10/15 09:00:35;;;;;;;;;;;;;;;18.51;56.27;100125.91;4954129;28;19978;-89
2022/10/15 09:03:25;;;;;;;;;;;;;;;18.43;55.30;100128.91;4969664;28;20317;-92
2022/10/15 09:06:12;;;;;;;;;;;;;;;18.84;53.71;100133.47;4956673;28;19937;-93
2022/10/15 09:08:52;;;;;;;;;;;;;;;19.12;54.73;100133.16;4950215;29;20293;-91
2022/10/15 09:11:23;;;;;;;;;;;;;;;19.06;53.43;100141.44;4973695;28;19921;-91
2022/10/15 09:13:51;;;;;;;;;;;;;;;19.19;51.75;100131.97;4954187;28;20009;-91
2022/10/15 09:16:22;;;;;;;;;;;;;;;18.70;51.61;100140.25;4956675;28;20660;-92
2022/10/15 09:18:51;;;;;;;;;;;;;;;19.12;50.61;100142.06;4953797;29;19972;-93
2022/10/15 09:21:22;;;;;;;;;;;;;;;19.42;52.17;100138.97;4955597;28;20009;-92
2022/10/15 09:23:56;;;;;;;;;;;;;;;19.60;50.74;100131.06;4962066;28;19977;-91
2022/10/15 09:26:45;;;;;;;;;;;;;;;20.07;49.61;100125.34;4956478;28;19925;-91
2022/10/15 09:29:30;;;;;;;;;;;;;;;19.76;51.25;100137.44;4957999;29;19973;-96
2022/10/15 09:32:26;;;;;;;;;;;;;;;19.76;51.10;100132.09;4960814;29;19918;-96
2022/10/15 09:35:04;;;;;;;;;;;;;;;19.67;47.93;100133.38;4961766;29;19941;-94
2022/10/15 09:37:49;;;;;;;;;;;;;;;19.85;47.46;100141.56;4973863;28;20041;-94
2022/10/15 09:40:32;;;;;;;;;;;;;;;19.23;48.64;100128.25;4959156;28;19918;-94
2022/10/15 09:43:45;;;;;;;;;;;;;;;18.93;50.16;100138.44;4964679;28;19961;-93
2022/10/15 09:46:23;;;;;;;;;;;;;;;18.95;50.18;100134.78;5009461;23;19922;-94
2022/10/15 09:49:07;;;;;;;;;;;;;;;19.15;49.53;100135.72;4981397;28;19926;-96
2022/10/15 09:52:01;;;;;;;;;;;;;;;19.06;50.90;100131.66;4974229;28;19989;-95
2022/10/15 09:54:50;;;;;;;;;;;;;;;19.06;49.29;100128.09;4970698;28;19922;-94
2022/10/15 09:57:16;;;;;;;;;;;;;;;19.48;48.79;100122.66;4950411;28;19922;-92
2022/10/15 09:59:56;;;;;;;;;;;;;;;19.78;46.24;100135.59;4959863;28;19977;-94
2022/10/15 10:02:24;;;;;;;;;;;;;;;20.13;46.24;100124.19;4974428;28;20455;-91
2022/10/15 10:04:51;;;;;;;;;;;;;;;20.67;44.79;100124.28;4961698;28;19918;-94
2022/10/15 10:07:33;;;;;;;;;;;;;;;20.55;44.31;100121.22;4972844;28;19948;-94
2022/10/15 10:10:17;;;;;;;;;;;;;;;20.58;42.42;100121.06;4956087;28;19914;-96
2022/10/15 10:12:46;;;;;;;;;;;;;;;20.89;41.19;100107.97;4956314;28;19918;-94
2022/10/15 10:15:24;;;;;;;;;;;;;;;20.83;41.61;100111.81;4967026;28;19906;-94
2022/10/15 10:17:53;;;;;;;;;;;;;;;20.76;43.42;100110.41;4984510;28;19941;-94
2022/10/15 10:20:22;;;;;;;;;;;;;;;21.21;41.50;100108.97;4992073;28;19924;-93
2022/10/15 10:22:56;;;;;;;;;;;;;;;21.43;40.83;100105.16;4981918;28;19918;-93
2022/10/15 10:25:27;;;;;;;;;;;;;;;21.67;41.38;100100.28;4988042;28;19955;-95
2022/10/15 10:30:24;;;;;;;;;;;;;;;21.73;40.19;100091.03;4993309;28;19906;-95
2022/10/15 10:33:00;;;;;;;;;;;;;;;21.43;39.41;100089.91;4991341;28;20344;-94
2022/10/15 10:35:34;;;;;;;;;;;;;;;20.96;40.59;100093.31;4950231;29;20356;-94
2022/10/15 10:38:00;;;;;;;;;;;;;;;21.16;40.92;100094.06;4971361;28;19922;-93
2022/10/15 10:40:33;;;;;;;;;;;;;;;21.28;40.60;100088.03;4960392;28;19929;-92
2022/10/15 10:43:18;;;;;;;;;;;;;;;21.26;40.35;100087.28;4956621;28;19926;-91
2022/10/15 10:45:52;;;;;;;;;;;;;;;21.14;41.42;100080.72;4979763;28;19920;-91
2022/10/15 10:48:19;;;;;;;;;;;;;;;20.26;43.20;100077.09;4972496;28;19914;-89
2022/10/15 10:50:46;;;;;;;;;;;;;;;20.26;43.87;100086.97;4989315;28;19925;-90
2022/10/15 10:53:20;;;;;;;;;;;;;;;20.13;46.22;100081.34;4990154;28;20372;-91
2022/10/15 10:55:47;;;;;;;;;;;;;;;20.54;45.42;100087.34;4975968;28;19969;-91
2022/10/15 10:58:18;;;;;;;;;;;;;;;20.87;44.26;100083.91;4970646;28;19961;-93
2022/10/15 11:00:45;;;;;;;;;;;;;;;20.76;44.16;100078.25;4954734;28;20348;-90
2022/10/15 11:03:19;;;;;;;;;;;;;;;20.55;44.01;100077.47;4971507;28;19976;-90
2022/10/15 11:05:48;;;;;;;;;;;;;;;20.15;44.48;100080.31;4972502;28;19918;-92
2022/10/15 11:08:16;;;;;;;;;;;;;;;20.13;45.79;100073.31;4971504;28;19918;-92
2022/10/15 11:10:58;;;;;;;;;;;;;;;20.34;43.31;100079.41;4972558;28;19914;-90
2022/10/15 11:13:43;;;;;;;;;;;;;;;19.75;44.86;100070.63;4954096;28;20357;-90
2022/10/15 11:16:35;;;;;;;;;;;;;;;19.70;46.12;100070.81;4975499;28;19918;-91
2022/10/15 11:19:20;;;;;;;;;;;;;;;20.05;44.84;100068.31;4948047;28;20349;-89
2022/10/15 11:21:58;;;;;;;;;;;;;;;20.18;42.87;100072.13;4972837;28;19918;-90
2022/10/15 11:24:42;;;;;;;;;;;;;;;20.58;42.05;100069.28;4970658;28;19925;-89
2022/10/15 11:27:16;;;;;;;;;;;;;;;20.60;42.35;100062.03;4971784;28;20131;-90
2022/10/15 11:29:50;;;;;;;;;;;;;;;20.63;41.88;100056.50;4970775;28;19918;-91
2022/10/15 11:32:18;;;;;;;;;;;;;;;20.47;41.88;100051.06;4970329;28;19953;-91
2022/10/15 11:35:04;;;;;;;;;;;;;;;20.58;42.17;100055.88;4971149;28;19968;-91
2022/10/15 11:37:41;;;;;;;;;;;;;;;20.62;42.47;100051.22;4946065;28;19965;-88
2022/10/15 11:40:24;;;;;;;;;;;;;;;20.45;43.12;100044.94;4969896;28;19976;-89
2022/10/15 11:42:59;;;;;;;;;;;;;;;20.48;42.70;100044.78;4969963;28;19917;-90
2022/10/15 11:45:30;;;;;;;;;;;;;;;20.55;42.05;100040.81;4950293;29;20500;-89
2022/10/15 11:48:01;;;;;;;;;;;;;;;20.59;42.20;100036.19;4950513;29;19918;-90
2022/10/15 11:50:27;;;;;;;;;;;;;;;20.73;42.43;100035.50;4952188;29;19993;-91
2022/10/15 11:53:01;;;;;;;;;;;;;;;20.75;42.50;100034.47;4956257;28;20675;-91
2022/10/15 11:55:35;;;;;;;;;;;;;;;20.71;40.98;100030.22;4969420;28;19914;-91
2022/10/15 11:58:05;;;;;;;;;;;;;;;20.68;43.36;100038.44;4952200;28;20347;-90
2022/10/15 12:00:32;;;;;;;;;;;;;;;20.74;42.87;100034.53;4969085;28;19914;-89
2022/10/15 12:03:00;;;;;;;;;;;;;;;20.88;42.00;100037.41;4971219;28;20021;-91
2022/10/15 12:05:39;;;;;;;;;;;;;;;21.00;40.06;100027.81;4969600;28;19924;-90
2022/10/15 12:08:08;;;;;;;;;;;;;;;21.17;40.20;100037.66;4969522;28;19914;-91
2022/10/15 12:10:36;;;;;;;;;;;;;;;20.96;40.30;100028.06;4952984;28;19918;-94
2022/10/15 12:13:28;;;;;;;;;;;;;;;20.77;40.38;100030.84;4973355;28;19914;-92
2022/10/15 12:16:03;;;;;;;;;;;;;;;21.08;39.74;100030.09;4970675;28;19920;-93
2022/10/15 12:18:47;;;;;;;;;;;;;;;21.06;41.38;100030.19;4979775;28;20304;-96
2022/10/15 12:21:28;;;;;;;;;;;;;;;21.03;40.75;100027.66;4978078;28;20297;-93
2022/10/15 12:23:53;;;;;;;;;;;;;;;21.06;40.15;100023.94;4954528;29;19966;-93
2022/10/15 12:26:32;;;;;;;;;;;;;;;21.01;40.64;100028.72;4965235;28;19957;-95
2022/10/15 12:28:58;;;;;;;;;;;;;;;20.81;41.18;100030.59;4985864;28;19933;-92
2022/10/15 12:31:25;;;;;;;;;;;;;;;20.68;42.50;100032.19;4979966;28;19918;-93
2022/10/15 12:33:52;;;;;;;;;;;;;;;20.97;40.36;100024.44;4955549;28;20024;-94
2022/10/15 12:36:27;;;;;;;;;;;;;;;21.09;39.28;100019.28;4973260;28;19933;-92
2022/10/15 12:38:55;;;;;;;;;;;;;;;20.66;41.05;100023.38;4956324;28;20028;-91
2022/10/15 12:41:20;;;;;;;;;;;;;;;21.08;40.20;100030.09;4974466;28;19914;-93
2022/10/15 12:43:53;;;;;;;;;;;;;;;20.92;40.50;100024.69;4973075;28;20320;-93
2022/10/15 12:46:18;;;;;;;;;;;;;;;20.93;39.73;100016.56;4956917;28;19925;-93
2022/10/15 12:48:46;;;;;;;;;;;;;;;20.95;41.38;100021.84;4986215;28;19918;-95